sensor_id;sensor_type;location;lat;lon;timestamp;P1;durP1;ratioP1;P2;durP2;ratioP2
25231;SDS011;13176;51.140;6.290;2023-04-03T00:00:46;8.57;;;7.88;;
25231;SDS011;13176;51.140;6.290;2023-04-03T00:03:12;8.23;;;7.63;;
25231;SDS011;13176;51.140;6.290;2023-04-03T00:05:39;8.43;;;7.45;;
25231;SDS011;13176;51.140;6.290;2023-04-03T00:08:07;8.00;;;7.43;;
25231;SDS011;13176;51.140;6.290;2023-04-03T00:10:36;7.72;;;7.22;;
25231;SDS011;13176;51.140;6.290;2023-04-03T00:13:06;8.88;;;8.07;;
25231;SDS011;13176;51.140;6.290;2023-04-03T00:15:34;11.90;;;7.90;;
25231;SDS011;13176;51.140;6.290;2023-04-03T00:18:01;8.10;;;7.50;;
25231;SDS011;13176;51.140;6.290;2023-04-03T00:20:28;7.90;;;7.30;;
25231;SDS011;13176;51.140;6.290;2023-04-03T00:22:54;7.60;;;7.07;;
25231;SDS011;13176;51.140;6.290;2023-04-03T00:25:21;7.47;;;6.90;;
25231;SDS011;13176;51.140;6.290;2023-04-03T00:27:48;8.38;;;7.63;;
25231;SDS011;13176;51.140;6.290;2023-04-03T00:30:18;8.07;;;7.53;;
25231;SDS011;13176;51.140;6.290;2023-04-03T00:32:50;8.23;;;7.57;;
25231;SDS011;13176;51.140;6.290;2023-04-03T00:35:17;8.45;;;7.50;;
25231;SDS011;13176;51.140;6.290;2023-04-03T00:37:45;8.15;;;7.63;;
25231;SDS011;13176;51.140;6.290;2023-04-03T00:40:13;7.70;;;7.10;;
25231;SDS011;13176;51.140;6.290;2023-04-03T00:42:41;8.15;;;7.57;;
25231;SDS011;13176;51.140;6.290;2023-04-03T00:47:44;8.57;;;7.97;;
25231;SDS011;13176;51.140;6.290;2023-04-03T00:50:12;8.75;;;8.07;;
25231;SDS011;13176;51.140;6.290;2023-04-03T00:52:38;8.07;;;7.57;;
25231;SDS011;13176;51.140;6.290;2023-04-03T00:55:08;8.85;;;8.20;;
25231;SDS011;13176;51.140;6.290;2023-04-03T00:57:36;9.18;;;8.57;;
25231;SDS011;13176;51.140;6.290;2023-04-03T01:00:10;9.52;;;8.73;;
25231;SDS011;13176;51.140;6.290;2023-04-03T01:02:40;9.57;;;8.77;;
25231;SDS011;13176;51.140;6.290;2023-04-03T01:05:07;9.45;;;8.65;;
25231;SDS011;13176;51.140;6.290;2023-04-03T01:07:34;9.68;;;9.02;;
25231;SDS011;13176;51.140;6.290;2023-04-03T01:10:04;9.23;;;8.45;;
25231;SDS011;13176;51.140;6.290;2023-04-03T01:12:38;9.70;;;9.00;;
25231;SDS011;13176;51.140;6.290;2023-04-03T01:15:17;9.82;;;9.10;;
25231;SDS011;13176;51.140;6.290;2023-04-03T01:17:50;9.77;;;9.07;;
25231;SDS011;13176;51.140;6.290;2023-04-03T01:25:43;9.20;;;8.60;;
25231;SDS011;13176;51.140;6.290;2023-04-03T01:28:16;9.07;;;8.00;;
25231;SDS011;13176;51.140;6.290;2023-04-03T01:33:39;9.40;;;8.70;;
25231;SDS011;13176;51.140;6.290;2023-04-03T01:36:06;10.00;;;9.07;;
25231;SDS011;13176;51.140;6.290;2023-04-03T01:38:33;9.38;;;8.55;;
25231;SDS011;13176;51.140;6.290;2023-04-03T01:41:00;9.48;;;8.80;;
25231;SDS011;13176;51.140;6.290;2023-04-03T01:43:26;10.02;;;9.02;;
25231;SDS011;13176;51.140;6.290;2023-04-03T01:45:53;9.80;;;9.00;;
25231;SDS011;13176;51.140;6.290;2023-04-03T01:48:21;9.20;;;8.52;;
25231;SDS011;13176;51.140;6.290;2023-04-03T01:50:47;8.90;;;8.27;;
25231;SDS011;13176;51.140;6.290;2023-04-03T01:53:14;8.80;;;8.10;;
25231;SDS011;13176;51.140;6.290;2023-04-03T01:55:40;9.20;;;8.43;;
25231;SDS011;13176;51.140;6.290;2023-04-03T01:58:07;9.98;;;9.07;;
25231;SDS011;13176;51.140;6.290;2023-04-03T02:00:33;10.20;;;9.32;;
25231;SDS011;13176;51.140;6.290;2023-04-03T02:03:00;11.02;;;10.02;;
25231;SDS011;13176;51.140;6.290;2023-04-03T02:05:26;11.15;;;10.25;;
25231;SDS011;13176;51.140;6.290;2023-04-03T02:07:55;15.48;;;11.82;;
25231;SDS011;13176;51.140;6.290;2023-04-03T02:10:22;12.15;;;10.73;;
25231;SDS011;13176;51.140;6.290;2023-04-03T02:12:48;10.85;;;9.85;;
25231;SDS011;13176;51.140;6.290;2023-04-03T02:15:15;10.05;;;9.25;;
25231;SDS011;13176;51.140;6.290;2023-04-03T02:17:41;9.88;;;9.25;;
25231;SDS011;13176;51.140;6.290;2023-04-03T02:20:08;10.23;;;9.52;;
25231;SDS011;13176;51.140;6.290;2023-04-03T02:22:35;9.98;;;9.20;;
25231;SDS011;13176;51.140;6.290;2023-04-03T02:25:01;11.10;;;10.13;;
25231;SDS011;13176;51.140;6.290;2023-04-03T02:27:28;10.40;;;9.60;;
25231;SDS011;13176;51.140;6.290;2023-04-03T02:29:54;10.02;;;9.32;;
25231;SDS011;13176;51.140;6.290;2023-04-03T02:32:21;9.52;;;8.93;;
25231;SDS011;13176;51.140;6.290;2023-04-03T02:34:47;10.25;;;9.45;;
25231;SDS011;13176;51.140;6.290;2023-04-03T02:37:14;10.05;;;9.25;;
25231;SDS011;13176;51.140;6.290;2023-04-03T02:39:41;10.00;;;9.27;;
25231;SDS011;13176;51.140;6.290;2023-04-03T02:42:07;10.45;;;9.55;;
25231;SDS011;13176;51.140;6.290;2023-04-03T02:44:33;11.25;;;10.20;;
25231;SDS011;13176;51.140;6.290;2023-04-03T02:47:00;11.30;;;10.43;;
25231;SDS011;13176;51.140;6.290;2023-04-03T02:49:26;11.38;;;10.57;;
25231;SDS011;13176;51.140;6.290;2023-04-03T02:51:53;11.15;;;10.43;;
25231;SDS011;13176;51.140;6.290;2023-04-03T02:54:19;11.63;;;10.48;;
25231;SDS011;13176;51.140;6.290;2023-04-03T02:56:45;10.82;;;9.90;;
25231;SDS011;13176;51.140;6.290;2023-04-03T02:59:12;10.68;;;9.82;;
25231;SDS011;13176;51.140;6.290;2023-04-03T03:01:38;10.40;;;9.60;;
25231;SDS011;13176;51.140;6.290;2023-04-03T03:04:04;10.52;;;9.55;;
25231;SDS011;13176;51.140;6.290;2023-04-03T03:06:31;11.43;;;10.45;;
25231;SDS011;13176;51.140;6.290;2023-04-03T03:08:57;10.90;;;10.10;;
25231;SDS011;13176;51.140;6.290;2023-04-03T03:11:24;10.63;;;9.82;;
25231;SDS011;13176;51.140;6.290;2023-04-03T03:13:51;11.27;;;9.95;;
25231;SDS011;13176;51.140;6.290;2023-04-03T03:16:17;11.80;;;10.65;;
25231;SDS011;13176;51.140;6.290;2023-04-03T03:18:44;11.20;;;10.20;;
25231;SDS011;13176;51.140;6.290;2023-04-03T03:21:11;10.63;;;9.70;;
25231;SDS011;13176;51.140;6.290;2023-04-03T03:23:37;11.50;;;10.43;;
25231;SDS011;13176;51.140;6.290;2023-04-03T03:26:05;10.55;;;9.55;;
25231;SDS011;13176;51.140;6.290;2023-04-03T03:28:37;11.02;;;10.02;;
25231;SDS011;13176;51.140;6.290;2023-04-03T03:31:04;10.52;;;9.55;;
25231;SDS011;13176;51.140;6.290;2023-04-03T03:33:31;9.98;;;9.07;;
25231;SDS011;13176;51.140;6.290;2023-04-03T03:35:58;10.93;;;9.82;;
25231;SDS011;13176;51.140;6.290;2023-04-03T03:38:25;10.75;;;9.65;;
25231;SDS011;13176;51.140;6.290;2023-04-03T03:40:52;12.13;;;9.05;;
25231;SDS011;13176;51.140;6.290;2023-04-03T03:43:18;10.65;;;9.27;;
25231;SDS011;13176;51.140;6.290;2023-04-03T03:45:49;10.55;;;9.63;;
25231;SDS011;13176;51.140;6.290;2023-04-03T03:48:16;9.90;;;9.00;;
25231;SDS011;13176;51.140;6.290;2023-04-03T03:50:43;10.23;;;9.25;;
25231;SDS011;13176;51.140;6.290;2023-04-03T03:53:09;10.23;;;9.23;;
25231;SDS011;13176;51.140;6.290;2023-04-03T03:55:35;9.73;;;8.90;;
25231;SDS011;13176;51.140;6.290;2023-04-03T03:58:02;10.07;;;9.18;;
25231;SDS011;13176;51.140;6.290;2023-04-03T04:00:29;10.00;;;9.05;;
25231;SDS011;13176;51.140;6.290;2023-04-03T04:02:56;9.73;;;8.73;;
25231;SDS011;13176;51.140;6.290;2023-04-03T04:05:24;9.80;;;8.95;;
25231;SDS011;13176;51.140;6.290;2023-04-03T04:07:51;9.85;;;8.90;;
25231;SDS011;13176;51.140;6.290;2023-04-03T04:10:17;9.23;;;8.38;;
25231;SDS011;13176;51.140;6.290;2023-04-03T04:12:43;9.38;;;8.68;;
25231;SDS011;13176;51.140;6.290;2023-04-03T04:15:10;9.15;;;8.25;;
25231;SDS011;13176;51.140;6.290;2023-04-03T04:17:37;9.18;;;8.30;;
25231;SDS011;13176;51.140;6.290;2023-04-03T04:20:03;8.70;;;8.00;;
25231;SDS011;13176;51.140;6.290;2023-04-03T04:22:31;8.50;;;7.90;;
25231;SDS011;13176;51.140;6.290;2023-04-03T04:24:57;7.82;;;7.32;;
25231;SDS011;13176;51.140;6.290;2023-04-03T04:27:23;8.63;;;7.93;;
25231;SDS011;13176;51.140;6.290;2023-04-03T04:29:50;8.35;;;7.65;;
25231;SDS011;13176;51.140;6.290;2023-04-03T04:32:16;12.00;;;8.32;;
25231;SDS011;13176;51.140;6.290;2023-04-03T04:34:43;8.02;;;7.43;;
25231;SDS011;13176;51.140;6.290;2023-04-03T04:37:09;8.13;;;7.53;;
25231;SDS011;13176;51.140;6.290;2023-04-03T04:39:36;8.60;;;7.45;;
25231;SDS011;13176;51.140;6.290;2023-04-03T04:42:02;9.13;;;7.18;;
25231;SDS011;13176;51.140;6.290;2023-04-03T04:44:29;7.93;;;7.18;;
25231;SDS011;13176;51.140;6.290;2023-04-03T04:46:56;7.93;;;7.22;;
25231;SDS011;13176;51.140;6.290;2023-04-03T04:49:22;7.85;;;7.25;;
25231;SDS011;13176;51.140;6.290;2023-04-03T04:51:48;7.25;;;6.75;;
25231;SDS011;13176;51.140;6.290;2023-04-03T04:54:17;8.32;;;7.53;;
25231;SDS011;13176;51.140;6.290;2023-04-03T04:56:44;8.15;;;7.35;;
25231;SDS011;13176;51.140;6.290;2023-04-03T04:59:11;7.50;;;6.90;;
25231;SDS011;13176;51.140;6.290;2023-04-03T05:01:37;8.50;;;7.10;;
25231;SDS011;13176;51.140;6.290;2023-04-03T05:04:04;7.78;;;7.18;;
25231;SDS011;13176;51.140;6.290;2023-04-03T05:06:30;7.47;;;6.80;;
25231;SDS011;13176;51.140;6.290;2023-04-03T05:08:58;7.82;;;7.03;;
25231;SDS011;13176;51.140;6.290;2023-04-03T05:11:24;9.00;;;6.85;;
25231;SDS011;13176;51.140;6.290;2023-04-03T05:13:51;8.00;;;7.10;;
25231;SDS011;13176;51.140;6.290;2023-04-03T05:16:18;10.15;;;7.20;;
25231;SDS011;13176;51.140;6.290;2023-04-03T05:18:44;7.05;;;6.55;;
25231;SDS011;13176;51.140;6.290;2023-04-03T05:21:11;6.93;;;6.30;;
25231;SDS011;13176;51.140;6.290;2023-04-03T05:23:37;7.53;;;6.93;;
25231;SDS011;13176;51.140;6.290;2023-04-03T05:26:03;8.45;;;6.50;;
25231;SDS011;13176;51.140;6.290;2023-04-03T05:28:30;7.65;;;6.63;;
25231;SDS011;13176;51.140;6.290;2023-04-03T05:30:56;7.38;;;6.68;;
25231;SDS011;13176;51.140;6.290;2023-04-03T05:33:24;7.40;;;6.80;;
25231;SDS011;13176;51.140;6.290;2023-04-03T05:35:52;8.10;;;6.93;;
25231;SDS011;13176;51.140;6.290;2023-04-03T05:38:20;7.45;;;6.75;;
25231;SDS011;13176;51.140;6.290;2023-04-03T05:40:46;6.65;;;6.15;;
25231;SDS011;13176;51.140;6.290;2023-04-03T05:43:13;6.82;;;6.32;;
25231;SDS011;13176;51.140;6.290;2023-04-03T05:45:42;6.85;;;6.18;;
25231;SDS011;13176;51.140;6.290;2023-04-03T05:48:12;6.88;;;6.43;;
25231;SDS011;13176;51.140;6.290;2023-04-03T05:50:39;7.28;;;6.57;;
25231;SDS011;13176;51.140;6.290;2023-04-03T05:53:10;7.53;;;6.85;;
25231;SDS011;13176;51.140;6.290;2023-04-03T05:55:43;7.55;;;6.43;;
25231;SDS011;13176;51.140;6.290;2023-04-03T05:58:10;7.32;;;6.70;;
25231;SDS011;13176;51.140;6.290;2023-04-03T06:00:37;7.47;;;6.90;;
25231;SDS011;13176;51.140;6.290;2023-04-03T06:03:03;7.07;;;6.47;;
25231;SDS011;13176;51.140;6.290;2023-04-03T06:05:30;6.72;;;6.22;;
25231;SDS011;13176;51.140;6.290;2023-04-03T06:07:56;7.57;;;6.88;;
25231;SDS011;13176;51.140;6.290;2023-04-03T06:10:23;7.30;;;6.80;;
25231;SDS011;13176;51.140;6.290;2023-04-03T06:12:50;6.97;;;6.38;;
25231;SDS011;13176;51.140;6.290;2023-04-03T06:15:17;7.05;;;6.45;;
25231;SDS011;13176;51.140;6.290;2023-04-03T06:17:44;7.07;;;6.53;;
25231;SDS011;13176;51.140;6.290;2023-04-03T06:20:10;7.80;;;6.97;;
25231;SDS011;13176;51.140;6.290;2023-04-03T06:22:38;7.32;;;6.65;;
25231;SDS011;13176;51.140;6.290;2023-04-03T06:25:04;7.72;;;7.22;;
25231;SDS011;13176;51.140;6.290;2023-04-03T06:27:34;7.13;;;6.45;;
25231;SDS011;13176;51.140;6.290;2023-04-03T06:30:01;7.07;;;6.57;;
25231;SDS011;13176;51.140;6.290;2023-04-03T06:32:27;9.25;;;6.55;;
25231;SDS011;13176;51.140;6.290;2023-04-03T06:34:54;7.63;;;6.88;;
25231;SDS011;13176;51.140;6.290;2023-04-03T06:37:21;7.32;;;6.50;;
25231;SDS011;13176;51.140;6.290;2023-04-03T06:39:48;6.70;;;6.20;;
25231;SDS011;13176;51.140;6.290;2023-04-03T06:42:15;7.13;;;6.13;;
25231;SDS011;13176;51.140;6.290;2023-04-03T06:44:42;7.00;;;6.30;;
25231;SDS011;13176;51.140;6.290;2023-04-03T06:47:12;7.28;;;6.65;;
25231;SDS011;13176;51.140;6.290;2023-04-03T06:49:39;6.90;;;6.20;;
25231;SDS011;13176;51.140;6.290;2023-04-03T06:52:06;7.10;;;6.50;;
25231;SDS011;13176;51.140;6.290;2023-04-03T06:54:32;7.28;;;6.57;;
25231;SDS011;13176;51.140;6.290;2023-04-03T06:56:59;7.80;;;6.63;;
25231;SDS011;13176;51.140;6.290;2023-04-03T06:59:26;7.70;;;7.07;;
25231;SDS011;13176;51.140;6.290;2023-04-03T07:01:52;7.78;;;7.00;;
25231;SDS011;13176;51.140;6.290;2023-04-03T07:04:19;7.47;;;6.88;;
25231;SDS011;13176;51.140;6.290;2023-04-03T07:06:46;7.68;;;6.97;;
25231;SDS011;13176;51.140;6.290;2023-04-03T07:09:13;7.47;;;6.80;;
25231;SDS011;13176;51.140;6.290;2023-04-03T07:11:41;7.75;;;7.15;;
25231;SDS011;13176;51.140;6.290;2023-04-03T07:14:07;9.63;;;7.57;;
25231;SDS011;13176;51.140;6.290;2023-04-03T07:16:34;8.25;;;7.47;;
25231;SDS011;13176;51.140;6.290;2023-04-03T07:19:02;7.55;;;6.82;;
25231;SDS011;13176;51.140;6.290;2023-04-03T07:21:29;7.00;;;6.43;;
25231;SDS011;13176;51.140;6.290;2023-04-03T07:23:55;7.50;;;6.88;;
25231;SDS011;13176;51.140;6.290;2023-04-03T07:26:22;7.18;;;6.68;;
25231;SDS011;13176;51.140;6.290;2023-04-03T07:28:48;7.15;;;6.55;;
25231;SDS011;13176;51.140;6.290;2023-04-03T07:31:16;7.68;;;6.97;;
25231;SDS011;13176;51.140;6.290;2023-04-03T07:33:44;6.55;;;6.15;;
25231;SDS011;13176;51.140;6.290;2023-04-03T07:36:15;7.93;;;6.97;;
25231;SDS011;13176;51.140;6.290;2023-04-03T07:38:44;6.75;;;6.15;;
25231;SDS011;13176;51.140;6.290;2023-04-03T07:41:12;6.65;;;6.05;;
25231;SDS011;13176;51.140;6.290;2023-04-03T07:43:41;7.35;;;6.05;;
25231;SDS011;13176;51.140;6.290;2023-04-03T07:46:10;6.22;;;5.60;;
25231;SDS011;13176;51.140;6.290;2023-04-03T07:48:37;6.93;;;6.32;;
25231;SDS011;13176;51.140;6.290;2023-04-03T07:51:04;5.78;;;5.20;;
25231;SDS011;13176;51.140;6.290;2023-04-03T07:53:31;6.13;;;5.60;;
25231;SDS011;13176;51.140;6.290;2023-04-03T07:55:58;5.45;;;5.05;;
25231;SDS011;13176;51.140;6.290;2023-04-03T07:58:25;5.38;;;4.88;;
25231;SDS011;13176;51.140;6.290;2023-04-03T08:00:52;5.78;;;5.10;;
25231;SDS011;13176;51.140;6.290;2023-04-03T08:03:18;6.25;;;5.75;;
25231;SDS011;13176;51.140;6.290;2023-04-03T08:05:45;7.35;;;6.55;;
25231;SDS011;13176;51.140;6.290;2023-04-03T08:08:14;7.43;;;6.82;;
25231;SDS011;13176;51.140;6.290;2023-04-03T08:10:48;7.75;;;7.15;;
25231;SDS011;13176;51.140;6.290;2023-04-03T08:13:16;7.10;;;6.18;;
25231;SDS011;13176;51.140;6.290;2023-04-03T08:15:42;5.90;;;5.50;;
25231;SDS011;13176;51.140;6.290;2023-04-03T08:18:09;7.10;;;6.05;;
25231;SDS011;13176;51.140;6.290;2023-04-03T08:20:37;5.57;;;5.07;;
25231;SDS011;13176;51.140;6.290;2023-04-03T08:23:04;6.07;;;5.47;;
25231;SDS011;13176;51.140;6.290;2023-04-03T08:25:30;6.70;;;6.10;;
25231;SDS011;13176;51.140;6.290;2023-04-03T08:27:57;7.18;;;5.57;;
25231;SDS011;13176;51.140;6.290;2023-04-03T08:30:24;5.45;;;4.97;;
25231;SDS011;13176;51.140;6.290;2023-04-03T08:32:51;6.38;;;5.88;;
25231;SDS011;13176;51.140;6.290;2023-04-03T08:35:17;5.55;;;4.97;;
25231;SDS011;13176;51.140;6.290;2023-04-03T08:37:45;7.28;;;5.78;;
25231;SDS011;13176;51.140;6.290;2023-04-03T08:40:15;5.20;;;4.72;;
25231;SDS011;13176;51.140;6.290;2023-04-03T08:45:38;5.13;;;4.22;;
25231;SDS011;13176;51.140;6.290;2023-04-03T08:48:19;4.97;;;4.15;;
25231;SDS011;13176;51.140;6.290;2023-04-03T08:50:51;4.10;;;3.70;;
25231;SDS011;13176;51.140;6.290;2023-04-03T08:53:21;3.90;;;3.60;;
25231;SDS011;13176;51.140;6.290;2023-04-03T08:55:51;3.63;;;3.33;;
25231;SDS011;13176;51.140;6.290;2023-04-03T08:58:29;3.92;;;3.60;;
25231;SDS011;13176;51.140;6.290;2023-04-03T09:01:03;4.25;;;3.85;;
25231;SDS011;13176;51.140;6.290;2023-04-03T09:03:33;5.00;;;4.33;;
25231;SDS011;13176;51.140;6.290;2023-04-03T09:06:21;4.53;;;4.15;;
25231;SDS011;13176;51.140;6.290;2023-04-03T09:08:55;4.20;;;3.80;;
25231;SDS011;13176;51.140;6.290;2023-04-03T09:11:36;4.38;;;3.70;;
25231;SDS011;13176;51.140;6.290;2023-04-03T09:14:15;3.95;;;3.55;;
25231;SDS011;13176;51.140;6.290;2023-04-03T09:16:54;4.07;;;3.88;;
25231;SDS011;13176;51.140;6.290;2023-04-03T09:25:11;3.95;;;3.65;;
25231;SDS011;13176;51.140;6.290;2023-04-03T09:27:51;3.60;;;3.40;;
25231;SDS011;13176;51.140;6.290;2023-04-03T09:30:19;3.70;;;3.38;;
25231;SDS011;13176;51.140;6.290;2023-04-03T09:32:49;4.82;;;3.80;;
25231;SDS011;13176;51.140;6.290;2023-04-03T09:35:25;3.83;;;3.53;;
25231;SDS011;13176;51.140;6.290;2023-04-03T09:40:37;4.93;;;3.70;;
25231;SDS011;13176;51.140;6.290;2023-04-03T09:43:25;3.45;;;3.15;;
25231;SDS011;13176;51.140;6.290;2023-04-03T09:45:55;3.67;;;3.08;;
25231;SDS011;13176;51.140;6.290;2023-04-03T09:48:23;3.33;;;3.10;;
25231;SDS011;13176;51.140;6.290;2023-04-03T09:56:03;3.97;;;3.67;;
25231;SDS011;13176;51.140;6.290;2023-04-03T10:01:31;3.70;;;3.40;;
25231;SDS011;13176;51.140;6.290;2023-04-03T10:04:03;3.50;;;3.20;;
25231;SDS011;13176;51.140;6.290;2023-04-03T10:06:33;4.37;;;3.97;;
25231;SDS011;13176;51.140;6.290;2023-04-03T10:09:25;3.70;;;3.40;;
25231;SDS011;13176;51.140;6.290;2023-04-03T10:12:06;3.30;;;3.10;;
25231;SDS011;13176;51.140;6.290;2023-04-03T10:14:40;3.60;;;3.40;;
25231;SDS011;13176;51.140;6.290;2023-04-03T10:20:02;3.30;;;3.10;;
25231;SDS011;13176;51.140;6.290;2023-04-03T10:28:00;4.22;;;3.88;;
25231;SDS011;13176;51.140;6.290;2023-04-03T10:30:36;3.53;;;3.33;;
25231;SDS011;13176;51.140;6.290;2023-04-03T10:47:34;3.30;;;3.10;;
25231;SDS011;13176;51.140;6.290;2023-04-03T10:55:58;7.65;;;3.80;;
25231;SDS011;13176;51.140;6.290;2023-04-03T10:58:54;4.38;;;3.97;;
25231;SDS011;13176;51.140;6.290;2023-04-03T11:01:26;5.38;;;4.90;;
25231;SDS011;13176;51.140;6.290;2023-04-03T11:03:59;4.78;;;4.47;;
25231;SDS011;13176;51.140;6.290;2023-04-03T11:06:41;4.30;;;3.90;;
25231;SDS011;13176;51.140;6.290;2023-04-03T11:12:04;5.55;;;3.70;;
25231;SDS011;13176;51.140;6.290;2023-04-03T11:14:39;3.80;;;3.60;;
25231;SDS011;13176;51.140;6.290;2023-04-03T11:22:51;3.88;;;3.67;;
25231;SDS011;13176;51.140;6.290;2023-04-03T11:25:25;4.32;;;3.95;;
25231;SDS011;13176;51.140;6.290;2023-04-03T11:27:54;4.07;;;3.63;;
25231;SDS011;13176;51.140;6.290;2023-04-03T11:30:22;4.05;;;3.70;;
25231;SDS011;13176;51.140;6.290;2023-04-03T11:35:36;3.78;;;3.47;;
25231;SDS011;13176;51.140;6.290;2023-04-03T11:38:10;3.97;;;3.60;;
25231;SDS011;13176;51.140;6.290;2023-04-03T11:40:46;3.60;;;3.30;;
25231;SDS011;13176;51.140;6.290;2023-04-03T11:43:20;3.40;;;3.20;;
25231;SDS011;13176;51.140;6.290;2023-04-03T11:45:50;4.07;;;3.67;;
25231;SDS011;13176;51.140;6.290;2023-04-03T11:50:58;3.80;;;3.50;;
25231;SDS011;13176;51.140;6.290;2023-04-03T11:53:38;4.20;;;3.20;;
25231;SDS011;13176;51.140;6.290;2023-04-03T12:04:22;3.85;;;3.55;;
25231;SDS011;13176;51.140;6.290;2023-04-03T12:07:33;4.18;;;3.80;;
25231;SDS011;13176;51.140;6.290;2023-04-03T12:15:21;7.25;;;3.65;;
25231;SDS011;13176;51.140;6.290;2023-04-03T12:17:52;4.43;;;4.03;;
25231;SDS011;13176;51.140;6.290;2023-04-03T12:25:51;3.90;;;3.53;;
25231;SDS011;13176;51.140;6.290;2023-04-03T12:28:18;4.50;;;4.07;;
25231;SDS011;13176;51.140;6.290;2023-04-03T12:30:44;4.32;;;4.00;;
25231;SDS011;13176;51.140;6.290;2023-04-03T12:33:19;3.88;;;3.67;;
25231;SDS011;13176;51.140;6.290;2023-04-03T12:35:57;3.90;;;3.60;;
25231;SDS011;13176;51.140;6.290;2023-04-03T12:38:37;4.22;;;3.83;;
25231;SDS011;13176;51.140;6.290;2023-04-03T12:43:59;4.05;;;3.50;;
25231;SDS011;13176;51.140;6.290;2023-04-03T12:46:48;3.85;;;3.47;;
25231;SDS011;13176;51.140;6.290;2023-04-03T12:51:52;3.78;;;3.47;;
25231;SDS011;13176;51.140;6.290;2023-04-03T12:54:21;3.55;;;3.35;;
25231;SDS011;13176;51.140;6.290;2023-04-03T12:57:08;3.50;;;3.30;;
25231;SDS011;13176;51.140;6.290;2023-04-03T12:59:38;3.45;;;3.25;;
25231;SDS011;13176;51.140;6.290;2023-04-03T13:02:10;4.22;;;3.72;;
25231;SDS011;13176;51.140;6.290;2023-04-03T13:04:48;5.40;;;3.65;;
25231;SDS011;13176;51.140;6.290;2023-04-03T13:07:27;4.20;;;3.30;;
25231;SDS011;13176;51.140;6.290;2023-04-03T13:09:59;3.90;;;3.60;;
25231;SDS011;13176;51.140;6.290;2023-04-03T13:12:28;3.70;;;3.42;;
25231;SDS011;13176;51.140;6.290;2023-04-03T13:14:58;4.07;;;3.85;;
25231;SDS011;13176;51.140;6.290;2023-04-03T13:17:29;3.63;;;3.42;;
25231;SDS011;13176;51.140;6.290;2023-04-03T13:20:09;3.72;;;3.42;;
25231;SDS011;13176;51.140;6.290;2023-04-03T13:22:48;4.22;;;3.80;;
25231;SDS011;13176;51.140;6.290;2023-04-03T13:25:17;4.18;;;3.80;;
25231;SDS011;13176;51.140;6.290;2023-04-03T13:27:46;6.07;;;3.92;;
25231;SDS011;13176;51.140;6.290;2023-04-03T13:30:38;4.30;;;3.90;;
25231;SDS011;13176;51.140;6.290;2023-04-03T13:33:21;4.20;;;3.80;;
25231;SDS011;13176;51.140;6.290;2023-04-03T13:36:24;4.03;;;3.63;;
25231;SDS011;13176;51.140;6.290;2023-04-03T13:38:44;3.80;;;3.50;;
25231;SDS011;13176;51.140;6.290;2023-04-03T13:43:52;3.40;;;3.20;;
25231;SDS011;13176;51.140;6.290;2023-04-03T13:46:26;4.00;;;3.47;;
25231;SDS011;13176;51.140;6.290;2023-04-03T13:48:54;4.15;;;3.13;;
25231;SDS011;13176;51.140;6.290;2023-04-03T13:51:24;3.20;;;3.00;;
25231;SDS011;13176;51.140;6.290;2023-04-03T14:01:52;3.58;;;3.30;;
25231;SDS011;13176;51.140;6.290;2023-04-03T14:04:23;4.57;;;3.42;;
25231;SDS011;13176;51.140;6.290;2023-04-03T14:06:51;3.80;;;3.50;;
25231;SDS011;13176;51.140;6.290;2023-04-03T14:09:19;3.58;;;3.28;;
25231;SDS011;13176;51.140;6.290;2023-04-03T14:11:47;4.68;;;3.15;;
25231;SDS011;13176;51.140;6.290;2023-04-03T14:14:21;3.22;;;3.03;;
25231;SDS011;13176;51.140;6.290;2023-04-03T14:16:51;3.70;;;3.50;;
25231;SDS011;13176;51.140;6.290;2023-04-03T14:19:25;4.28;;;3.35;;
25231;SDS011;13176;51.140;6.290;2023-04-03T14:21:54;3.33;;;3.05;;
25231;SDS011;13176;51.140;6.290;2023-04-03T14:24:21;3.30;;;3.10;;
25231;SDS011;13176;51.140;6.290;2023-04-03T14:26:49;3.65;;;3.38;;
25231;SDS011;13176;51.140;6.290;2023-04-03T14:29:18;3.60;;;3.30;;
25231;SDS011;13176;51.140;6.290;2023-04-03T14:31:45;3.60;;;3.40;;
25231;SDS011;13176;51.140;6.290;2023-04-03T14:34:13;4.82;;;3.75;;
25231;SDS011;13176;51.140;6.290;2023-04-03T14:36:41;4.28;;;3.55;;
25231;SDS011;13176;51.140;6.290;2023-04-03T14:39:10;3.47;;;3.17;;
25231;SDS011;13176;51.140;6.290;2023-04-03T14:41:42;3.47;;;3.28;;
25231;SDS011;13176;51.140;6.290;2023-04-03T14:44:09;3.53;;;3.30;;
25231;SDS011;13176;51.140;6.290;2023-04-03T14:46:36;3.90;;;3.47;;
25231;SDS011;13176;51.140;6.290;2023-04-03T14:49:22;3.40;;;3.10;;
25231;SDS011;13176;51.140;6.290;2023-04-03T14:51:51;3.63;;;3.42;;
25231;SDS011;13176;51.140;6.290;2023-04-03T14:54:20;4.20;;;3.45;;
25231;SDS011;13176;51.140;6.290;2023-04-03T14:56:51;4.38;;;3.35;;
25231;SDS011;13176;51.140;6.290;2023-04-03T14:59:18;5.75;;;3.88;;
25231;SDS011;13176;51.140;6.290;2023-04-03T15:01:46;3.45;;;3.25;;
25231;SDS011;13176;51.140;6.290;2023-04-03T15:04:13;3.47;;;3.15;;
25231;SDS011;13176;51.140;6.290;2023-04-03T15:06:42;3.83;;;3.63;;
25231;SDS011;13176;51.140;6.290;2023-04-03T15:09:12;5.13;;;3.65;;
25231;SDS011;13176;51.140;6.290;2023-04-03T15:11:45;3.85;;;3.55;;
25231;SDS011;13176;51.140;6.290;2023-04-03T15:14:12;3.40;;;3.20;;
25231;SDS011;13176;51.140;6.290;2023-04-03T15:16:38;4.03;;;3.30;;
25231;SDS011;13176;51.140;6.290;2023-04-03T15:19:05;4.63;;;3.50;;
25231;SDS011;13176;51.140;6.290;2023-04-03T15:21:31;3.70;;;3.38;;
25231;SDS011;13176;51.140;6.290;2023-04-03T15:23:57;5.75;;;3.65;;
25231;SDS011;13176;51.140;6.290;2023-04-03T15:26:27;3.50;;;3.30;;
25231;SDS011;13176;51.140;6.290;2023-04-03T15:28:53;3.50;;;3.30;;
25231;SDS011;13176;51.140;6.290;2023-04-03T15:31:21;3.70;;;3.50;;
25231;SDS011;13176;51.140;6.290;2023-04-03T15:33:47;3.60;;;3.30;;
25231;SDS011;13176;51.140;6.290;2023-04-03T15:36:13;3.65;;;3.35;;
25231;SDS011;13176;51.140;6.290;2023-04-03T15:38:58;3.78;;;3.47;;
25231;SDS011;13176;51.140;6.290;2023-04-03T15:41:24;4.13;;;3.53;;
25231;SDS011;13176;51.140;6.290;2023-04-03T15:43:51;3.80;;;3.50;;
25231;SDS011;13176;51.140;6.290;2023-04-03T15:46:17;5.10;;;3.30;;
25231;SDS011;13176;51.140;6.290;2023-04-03T15:48:44;3.65;;;3.35;;
25231;SDS011;13176;51.140;6.290;2023-04-03T15:51:10;4.85;;;3.00;;
25231;SDS011;13176;51.140;6.290;2023-04-03T15:53:37;3.30;;;3.10;;
25231;SDS011;13176;51.140;6.290;2023-04-03T15:56:03;4.25;;;3.30;;
25231;SDS011;13176;51.140;6.290;2023-04-03T15:58:30;6.03;;;3.67;;
25231;SDS011;13176;51.140;6.290;2023-04-03T16:00:57;3.80;;;3.40;;
25231;SDS011;13176;51.140;6.290;2023-04-03T16:03:23;3.58;;;3.30;;
25231;SDS011;13176;51.140;6.290;2023-04-03T16:05:50;4.30;;;3.90;;
25231;SDS011;13176;51.140;6.290;2023-04-03T16:08:17;3.50;;;3.20;;
25231;SDS011;13176;51.140;6.290;2023-04-03T16:10:44;4.30;;;4.00;;
25231;SDS011;13176;51.140;6.290;2023-04-03T16:13:13;4.20;;;3.80;;
25231;SDS011;13176;51.140;6.290;2023-04-03T16:15:40;3.83;;;3.53;;
25231;SDS011;13176;51.140;6.290;2023-04-03T16:18:07;3.80;;;3.50;;
25231;SDS011;13176;51.140;6.290;2023-04-03T16:20:34;4.30;;;3.90;;
25231;SDS011;13176;51.140;6.290;2023-04-03T16:23:01;5.95;;;3.50;;
25231;SDS011;13176;51.140;6.290;2023-04-03T16:25:28;3.45;;;3.25;;
25231;SDS011;13176;51.140;6.290;2023-04-03T16:27:54;3.90;;;3.60;;
25231;SDS011;13176;51.140;6.290;2023-04-03T16:30:21;3.63;;;3.33;;
25231;SDS011;13176;51.140;6.290;2023-04-03T16:32:47;4.70;;;3.80;;
25231;SDS011;13176;51.140;6.290;2023-04-03T16:35:14;4.38;;;3.97;;
25231;SDS011;13176;51.140;6.290;2023-04-03T16:37:43;4.22;;;3.83;;
25231;SDS011;13176;51.140;6.290;2023-04-03T16:40:10;4.13;;;3.80;;
25231;SDS011;13176;51.140;6.290;2023-04-03T16:42:38;5.20;;;3.90;;
25231;SDS011;13176;51.140;6.290;2023-04-03T16:45:05;4.38;;;4.00;;